sensor_id;sensor_type;location;lat;lon;timestamp;P1;durP1;ratioP1;P2;durP2;ratioP2
13584;SDS011;6863;48.402;9.994;2023-03-23T00:02:26;4.73;;;3.80;;
13584;SDS011;6863;48.402;9.994;2023-03-23T00:04:53;4.77;;;4.30;;
13584;SDS011;6863;48.402;9.994;2023-03-23T00:07:20;4.87;;;4.40;;
13584;SDS011;6863;48.402;9.994;2023-03-23T00:09:49;4.70;;;4.30;;
13584;SDS011;6863;48.402;9.994;2023-03-23T00:12:26;5.90;;;4.40;;
13584;SDS011;6863;48.402;9.994;2023-03-23T00:15:02;5.23;;;4.73;;
13584;SDS011;6863;48.402;9.994;2023-03-23T00:17:29;4.63;;;4.13;;
13584;SDS011;6863;48.402;9.994;2023-03-23T00:19:58;4.27;;;3.90;;
13584;SDS011;6863;48.402;9.994;2023-03-23T00:22:26;4.93;;;4.40;;
13584;SDS011;6863;48.402;9.994;2023-03-23T00:24:52;4.23;;;3.83;;
13584;SDS011;6863;48.402;9.994;2023-03-23T00:27:18;6.00;;;4.80;;
13584;SDS011;6863;48.402;9.994;2023-03-23T00:29:46;4.73;;;4.17;;
13584;SDS011;6863;48.402;9.994;2023-03-23T00:32:14;5.53;;;4.43;;
13584;SDS011;6863;48.402;9.994;2023-03-23T00:34:41;4.73;;;4.30;;
13584;SDS011;6863;48.402;9.994;2023-03-23T00:37:09;5.30;;;4.57;;
13584;SDS011;6863;48.402;9.994;2023-03-23T00:39:35;4.93;;;4.50;;
13584;SDS011;6863;48.402;9.994;2023-03-23T00:42:02;5.17;;;4.40;;
13584;SDS011;6863;48.402;9.994;2023-03-23T00:44:32;4.93;;;4.43;;
13584;SDS011;6863;48.402;9.994;2023-03-23T00:47:00;6.00;;;4.53;;
13584;SDS011;6863;48.402;9.994;2023-03-23T00:49:26;5.80;;;4.50;;
13584;SDS011;6863;48.402;9.994;2023-03-23T00:51:56;5.80;;;4.93;;
13584;SDS011;6863;48.402;9.994;2023-03-23T00:54:23;5.47;;;4.93;;
13584;SDS011;6863;48.402;9.994;2023-03-23T00:56:49;5.77;;;4.57;;
13584;SDS011;6863;48.402;9.994;2023-03-23T00:59:15;4.80;;;4.40;;
13584;SDS011;6863;48.402;9.994;2023-03-23T01:01:41;5.83;;;4.93;;
13584;SDS011;6863;48.402;9.994;2023-03-23T01:04:07;6.00;;;4.93;;
13584;SDS011;6863;48.402;9.994;2023-03-23T01:06:34;5.20;;;4.60;;
13584;SDS011;6863;48.402;9.994;2023-03-23T01:09:04;7.73;;;5.23;;
13584;SDS011;6863;48.402;9.994;2023-03-23T01:11:34;4.97;;;4.57;;
13584;SDS011;6863;48.402;9.994;2023-03-23T01:14:00;5.40;;;4.87;;
13584;SDS011;6863;48.402;9.994;2023-03-23T01:16:26;5.57;;;5.07;;
13584;SDS011;6863;48.402;9.994;2023-03-23T01:18:52;6.13;;;4.97;;
13584;SDS011;6863;48.402;9.994;2023-03-23T01:21:18;8.80;;;6.17;;
13584;SDS011;6863;48.402;9.994;2023-03-23T01:23:45;6.73;;;4.83;;
13584;SDS011;6863;48.402;9.994;2023-03-23T01:26:15;6.17;;;5.10;;
13584;SDS011;6863;48.402;9.994;2023-03-23T01:28:46;8.27;;;4.80;;
13584;SDS011;6863;48.402;9.994;2023-03-23T01:31:16;5.50;;;4.90;;
13584;SDS011;6863;48.402;9.994;2023-03-23T01:33:44;6.53;;;5.23;;
13584;SDS011;6863;48.402;9.994;2023-03-23T01:36:14;5.97;;;5.40;;
13584;SDS011;6863;48.402;9.994;2023-03-23T01:38:43;5.77;;;4.77;;
13584;SDS011;6863;48.402;9.994;2023-03-23T01:41:10;5.80;;;5.20;;
13584;SDS011;6863;48.402;9.994;2023-03-23T01:43:36;5.73;;;4.67;;
13584;SDS011;6863;48.402;9.994;2023-03-23T01:46:18;5.83;;;5.13;;
13584;SDS011;6863;48.402;9.994;2023-03-23T01:48:43;4.87;;;4.20;;
13584;SDS011;6863;48.402;9.994;2023-03-23T01:51:12;5.57;;;4.90;;
13584;SDS011;6863;48.402;9.994;2023-03-23T01:53:45;5.53;;;4.57;;
13584;SDS011;6863;48.402;9.994;2023-03-23T01:56:16;5.27;;;4.73;;
13584;SDS011;6863;48.402;9.994;2023-03-23T01:58:49;4.90;;;4.40;;
13584;SDS011;6863;48.402;9.994;2023-03-23T02:01:15;6.33;;;4.53;;
13584;SDS011;6863;48.402;9.994;2023-03-23T02:03:42;4.80;;;4.40;;
13584;SDS011;6863;48.402;9.994;2023-03-23T02:06:10;5.30;;;4.57;;
13584;SDS011;6863;48.402;9.994;2023-03-23T02:08:37;6.47;;;4.67;;
13584;SDS011;6863;48.402;9.994;2023-03-23T02:11:15;4.40;;;4.00;;
13584;SDS011;6863;48.402;9.994;2023-03-23T02:13:43;4.43;;;4.03;;
13584;SDS011;6863;48.402;9.994;2023-03-23T02:18:58;6.00;;;4.73;;
13584;SDS011;6863;48.402;9.994;2023-03-23T02:24:30;4.10;;;3.70;;
13584;SDS011;6863;48.402;9.994;2023-03-23T02:30:20;5.43;;;4.63;;
13584;SDS011;6863;48.402;9.994;2023-03-23T02:35:38;5.53;;;4.90;;
13584;SDS011;6863;48.402;9.994;2023-03-23T02:38:22;5.30;;;4.47;;
13584;SDS011;6863;48.402;9.994;2023-03-23T02:41:18;5.30;;;4.80;;
13584;SDS011;6863;48.402;9.994;2023-03-23T02:43:47;5.97;;;5.30;;
13584;SDS011;6863;48.402;9.994;2023-03-23T02:46:14;6.10;;;5.13;;
13584;SDS011;6863;48.402;9.994;2023-03-23T02:48:41;5.90;;;5.40;;
13584;SDS011;6863;48.402;9.994;2023-03-23T02:51:09;6.07;;;5.27;;
13584;SDS011;6863;48.402;9.994;2023-03-23T02:53:37;7.47;;;5.60;;
13584;SDS011;6863;48.402;9.994;2023-03-23T02:56:06;6.60;;;5.80;;
13584;SDS011;6863;48.402;9.994;2023-03-23T02:58:34;6.20;;;5.57;;
13584;SDS011;6863;48.402;9.994;2023-03-23T03:01:12;6.40;;;5.23;;
13584;SDS011;6863;48.402;9.994;2023-03-23T03:03:42;5.97;;;5.43;;
13584;SDS011;6863;48.402;9.994;2023-03-23T03:06:14;7.30;;;6.20;;
13584;SDS011;6863;48.402;9.994;2023-03-23T03:11:27;7.47;;;5.50;;
13584;SDS011;6863;48.402;9.994;2023-03-23T03:14:02;6.00;;;5.40;;
13584;SDS011;6863;48.402;9.994;2023-03-23T03:16:36;6.03;;;5.53;;
13584;SDS011;6863;48.402;9.994;2023-03-23T03:19:12;6.37;;;5.77;;
13584;SDS011;6863;48.402;9.994;2023-03-23T03:21:42;7.57;;;6.60;;
13584;SDS011;6863;48.402;9.994;2023-03-23T03:24:12;7.30;;;5.90;;
13584;SDS011;6863;48.402;9.994;2023-03-23T03:26:43;6.33;;;5.63;;
13584;SDS011;6863;48.402;9.994;2023-03-23T03:29:12;6.20;;;5.20;;
13584;SDS011;6863;48.402;9.994;2023-03-23T03:31:42;7.47;;;5.07;;
13584;SDS011;6863;48.402;9.994;2023-03-23T03:34:13;6.50;;;5.90;;
13584;SDS011;6863;48.402;9.994;2023-03-23T03:36:46;7.03;;;6.23;;
13584;SDS011;6863;48.402;9.994;2023-03-23T03:39:13;7.70;;;5.77;;
13584;SDS011;6863;48.402;9.994;2023-03-23T03:41:41;5.90;;;5.40;;
13584;SDS011;6863;48.402;9.994;2023-03-23T03:44:07;6.10;;;5.50;;
13584;SDS011;6863;48.402;9.994;2023-03-23T03:46:34;6.90;;;6.17;;
13584;SDS011;6863;48.402;9.994;2023-03-23T03:49:00;6.63;;;5.80;;
13584;SDS011;6863;48.402;9.994;2023-03-23T03:51:28;6.63;;;6.03;;
13584;SDS011;6863;48.402;9.994;2023-03-23T03:53:55;6.33;;;5.70;;
13584;SDS011;6863;48.402;9.994;2023-03-23T03:56:21;7.50;;;5.67;;
13584;SDS011;6863;48.402;9.994;2023-03-23T03:58:48;6.63;;;5.97;;
13584;SDS011;6863;48.402;9.994;2023-03-23T04:01:15;8.80;;;6.53;;
13584;SDS011;6863;48.402;9.994;2023-03-23T04:03:43;6.87;;;6.13;;
13584;SDS011;6863;48.402;9.994;2023-03-23T04:06:09;6.27;;;5.67;;
13584;SDS011;6863;48.402;9.994;2023-03-23T04:08:35;7.00;;;6.37;;
13584;SDS011;6863;48.402;9.994;2023-03-23T04:11:02;8.43;;;6.57;;
13584;SDS011;6863;48.402;9.994;2023-03-23T04:13:29;6.20;;;5.60;;
13584;SDS011;6863;48.402;9.994;2023-03-23T04:15:55;7.30;;;6.60;;
13584;SDS011;6863;48.402;9.994;2023-03-23T04:18:20;8.60;;;6.70;;
13584;SDS011;6863;48.402;9.994;2023-03-23T04:20:47;8.23;;;6.93;;
13584;SDS011;6863;48.402;9.994;2023-03-23T04:23:17;7.53;;;6.17;;
13584;SDS011;6863;48.402;9.994;2023-03-23T04:25:48;9.80;;;7.00;;
13584;SDS011;6863;48.402;9.994;2023-03-23T04:28:15;7.17;;;6.03;;
13584;SDS011;6863;48.402;9.994;2023-03-23T04:30:42;7.07;;;6.37;;
13584;SDS011;6863;48.402;9.994;2023-03-23T04:33:08;6.50;;;5.90;;
13584;SDS011;6863;48.402;9.994;2023-03-23T04:35:40;6.37;;;5.57;;
13584;SDS011;6863;48.402;9.994;2023-03-23T04:38:06;6.57;;;5.97;;
13584;SDS011;6863;48.402;9.994;2023-03-23T04:40:35;6.87;;;6.27;;
13584;SDS011;6863;48.402;9.994;2023-03-23T04:43:01;6.27;;;5.67;;
13584;SDS011;6863;48.402;9.994;2023-03-23T04:45:31;6.40;;;5.90;;
13584;SDS011;6863;48.402;9.994;2023-03-23T04:47:57;6.87;;;6.17;;
13584;SDS011;6863;48.402;9.994;2023-03-23T04:50:26;6.47;;;5.73;;
13584;SDS011;6863;48.402;9.994;2023-03-23T04:52:55;6.43;;;5.77;;
13584;SDS011;6863;48.402;9.994;2023-03-23T04:55:22;6.33;;;5.47;;
13584;SDS011;6863;48.402;9.994;2023-03-23T04:57:49;6.87;;;5.70;;
13584;SDS011;6863;48.402;9.994;2023-03-23T05:00:15;7.40;;;5.90;;
13584;SDS011;6863;48.402;9.994;2023-03-23T05:02:42;7.13;;;5.93;;
13584;SDS011;6863;48.402;9.994;2023-03-23T05:05:09;7.20;;;6.57;;
13584;SDS011;6863;48.402;9.994;2023-03-23T05:07:37;7.70;;;6.97;;
13584;SDS011;6863;48.402;9.994;2023-03-23T05:10:03;7.10;;;6.00;;
13584;SDS011;6863;48.402;9.994;2023-03-23T05:12:30;8.17;;;7.10;;
13584;SDS011;6863;48.402;9.994;2023-03-23T05:14:56;6.97;;;6.03;;
13584;SDS011;6863;48.402;9.994;2023-03-23T05:17:22;7.23;;;6.53;;
13584;SDS011;6863;48.402;9.994;2023-03-23T05:19:49;8.13;;;6.47;;
13584;SDS011;6863;48.402;9.994;2023-03-23T05:22:15;7.17;;;5.90;;
13584;SDS011;6863;48.402;9.994;2023-03-23T05:24:41;6.00;;;5.50;;
13584;SDS011;6863;48.402;9.994;2023-03-23T05:27:07;6.30;;;5.73;;
13584;SDS011;6863;48.402;9.994;2023-03-23T05:29:36;6.60;;;5.70;;
13584;SDS011;6863;48.402;9.994;2023-03-23T05:32:05;8.33;;;5.83;;
13584;SDS011;6863;48.402;9.994;2023-03-23T05:34:33;6.07;;;5.47;;
13584;SDS011;6863;48.402;9.994;2023-03-23T05:37:00;6.70;;;5.80;;
13584;SDS011;6863;48.402;9.994;2023-03-23T05:39:29;5.77;;;5.17;;
13584;SDS011;6863;48.402;9.994;2023-03-23T05:41:56;7.47;;;5.70;;
13584;SDS011;6863;48.402;9.994;2023-03-23T05:44:21;5.90;;;5.40;;
13584;SDS011;6863;48.402;9.994;2023-03-23T05:46:48;8.73;;;5.57;;
13584;SDS011;6863;48.402;9.994;2023-03-23T05:49:15;5.50;;;4.87;;
13584;SDS011;6863;48.402;9.994;2023-03-23T05:51:44;5.83;;;5.20;;
13584;SDS011;6863;48.402;9.994;2023-03-23T05:54:15;5.50;;;5.00;;
13584;SDS011;6863;48.402;9.994;2023-03-23T05:56:41;5.70;;;4.97;;
13584;SDS011;6863;48.402;9.994;2023-03-23T05:59:07;4.73;;;4.33;;
13584;SDS011;6863;48.402;9.994;2023-03-23T06:01:35;6.03;;;4.80;;
13584;SDS011;6863;48.402;9.994;2023-03-23T06:04:00;5.37;;;4.87;;
13584;SDS011;6863;48.402;9.994;2023-03-23T06:06:26;5.33;;;4.83;;
13584;SDS011;6863;48.402;9.994;2023-03-23T06:08:54;5.60;;;5.03;;
13584;SDS011;6863;48.402;9.994;2023-03-23T06:11:20;5.43;;;4.97;;
13584;SDS011;6863;48.402;9.994;2023-03-23T06:13:46;6.67;;;5.97;;
13584;SDS011;6863;48.402;9.994;2023-03-23T06:16:13;6.40;;;5.80;;
13584;SDS011;6863;48.402;9.994;2023-03-23T06:18:39;6.23;;;5.13;;
13584;SDS011;6863;48.402;9.994;2023-03-23T06:21:05;5.40;;;4.90;;
13584;SDS011;6863;48.402;9.994;2023-03-23T06:23:31;6.33;;;5.73;;
13584;SDS011;6863;48.402;9.994;2023-03-23T06:25:58;5.63;;;4.90;;
13584;SDS011;6863;48.402;9.994;2023-03-23T06:28:26;7.77;;;5.87;;
13584;SDS011;6863;48.402;9.994;2023-03-23T06:30:52;5.83;;;5.30;;
13584;SDS011;6863;48.402;9.994;2023-03-23T06:33:18;7.30;;;5.80;;
13584;SDS011;6863;48.402;9.994;2023-03-23T06:35:44;7.00;;;5.70;;
13584;SDS011;6863;48.402;9.994;2023-03-23T06:38:10;6.47;;;5.47;;
13584;SDS011;6863;48.402;9.994;2023-03-23T06:40:37;6.23;;;5.17;;
13584;SDS011;6863;48.402;9.994;2023-03-23T06:43:03;6.87;;;5.93;;
13584;SDS011;6863;48.402;9.994;2023-03-23T06:45:29;8.40;;;6.00;;
13584;SDS011;6863;48.402;9.994;2023-03-23T06:47:56;5.83;;;5.03;;
13584;SDS011;6863;48.402;9.994;2023-03-23T06:50:22;6.60;;;5.33;;
13584;SDS011;6863;48.402;9.994;2023-03-23T06:52:48;7.07;;;5.43;;
13584;SDS011;6863;48.402;9.994;2023-03-23T06:55:16;7.23;;;5.23;;
13584;SDS011;6863;48.402;9.994;2023-03-23T06:57:43;8.63;;;5.43;;
13584;SDS011;6863;48.402;9.994;2023-03-23T07:00:11;9.07;;;5.87;;
13584;SDS011;6863;48.402;9.994;2023-03-23T07:02:41;5.77;;;4.67;;
13584;SDS011;6863;48.402;9.994;2023-03-23T07:05:08;6.13;;;4.83;;
13584;SDS011;6863;48.402;9.994;2023-03-23T07:07:34;5.43;;;4.73;;
13584;SDS011;6863;48.402;9.994;2023-03-23T07:10:04;5.60;;;4.67;;
13584;SDS011;6863;48.402;9.994;2023-03-23T07:12:30;8.60;;;5.47;;
13584;SDS011;6863;48.402;9.994;2023-03-23T07:14:56;6.17;;;4.53;;
13584;SDS011;6863;48.402;9.994;2023-03-23T07:17:22;5.20;;;4.40;;
13584;SDS011;6863;48.402;9.994;2023-03-23T07:19:47;9.63;;;4.83;;
13584;SDS011;6863;48.402;9.994;2023-03-23T07:22:13;4.87;;;4.17;;
13584;SDS011;6863;48.402;9.994;2023-03-23T07:24:38;5.33;;;4.23;;
13584;SDS011;6863;48.402;9.994;2023-03-23T07:27:04;4.60;;;4.20;;
13584;SDS011;6863;48.402;9.994;2023-03-23T07:29:30;4.77;;;4.40;;
13584;SDS011;6863;48.402;9.994;2023-03-23T07:31:55;4.47;;;4.07;;
13584;SDS011;6863;48.402;9.994;2023-03-23T07:34:22;4.67;;;4.23;;
13584;SDS011;6863;48.402;9.994;2023-03-23T07:36:48;4.67;;;4.27;;
13584;SDS011;6863;48.402;9.994;2023-03-23T07:39:13;4.17;;;3.77;;
13584;SDS011;6863;48.402;9.994;2023-03-23T07:41:39;6.30;;;4.30;;
13584;SDS011;6863;48.402;9.994;2023-03-23T07:44:05;5.63;;;4.13;;
13584;SDS011;6863;48.402;9.994;2023-03-23T07:46:31;7.47;;;4.33;;
13584;SDS011;6863;48.402;9.994;2023-03-23T07:48:57;5.70;;;4.47;;
13584;SDS011;6863;48.402;9.994;2023-03-23T07:51:23;4.73;;;3.90;;
13584;SDS011;6863;48.402;9.994;2023-03-23T07:53:52;4.63;;;4.20;;
13584;SDS011;6863;48.402;9.994;2023-03-23T07:56:19;4.60;;;3.93;;
13584;SDS011;6863;48.402;9.994;2023-03-23T07:58:46;5.33;;;4.17;;
13584;SDS011;6863;48.402;9.994;2023-03-23T08:01:12;4.40;;;3.60;;
13584;SDS011;6863;48.402;9.994;2023-03-23T08:03:38;5.17;;;3.63;;
13584;SDS011;6863;48.402;9.994;2023-03-23T08:06:04;4.87;;;3.80;;
13584;SDS011;6863;48.402;9.994;2023-03-23T08:08:30;4.13;;;3.50;;
13584;SDS011;6863;48.402;9.994;2023-03-23T08:10:57;4.00;;;3.57;;
13584;SDS011;6863;48.402;9.994;2023-03-23T08:13:23;5.87;;;3.60;;
13584;SDS011;6863;48.402;9.994;2023-03-23T08:15:49;4.50;;;3.20;;
13584;SDS011;6863;48.402;9.994;2023-03-23T08:18:16;4.70;;;3.43;;
13584;SDS011;6863;48.402;9.994;2023-03-23T08:20:42;4.13;;;3.73;;
13584;SDS011;6863;48.402;9.994;2023-03-23T08:23:09;4.93;;;3.43;;
13584;SDS011;6863;48.402;9.994;2023-03-23T08:25:35;6.50;;;4.60;;
13584;SDS011;6863;48.402;9.994;2023-03-23T08:28:02;4.73;;;4.10;;
13584;SDS011;6863;48.402;9.994;2023-03-23T08:30:28;4.70;;;4.30;;
13584;SDS011;6863;48.402;9.994;2023-03-23T08:32:57;7.53;;;5.33;;
13584;SDS011;6863;48.402;9.994;2023-03-23T08:35:25;4.77;;;4.37;;
13584;SDS011;6863;48.402;9.994;2023-03-23T08:37:50;5.63;;;4.53;;
13584;SDS011;6863;48.402;9.994;2023-03-23T08:40:18;5.87;;;4.20;;
13584;SDS011;6863;48.402;9.994;2023-03-23T08:42:45;5.23;;;4.10;;
13584;SDS011;6863;48.402;9.994;2023-03-23T08:45:13;5.20;;;4.00;;
13584;SDS011;6863;48.402;9.994;2023-03-23T08:47:41;5.73;;;4.30;;
13584;SDS011;6863;48.402;9.994;2023-03-23T08:50:08;4.30;;;3.90;;
13584;SDS011;6863;48.402;9.994;2023-03-23T08:52:37;4.40;;;3.97;;
13584;SDS011;6863;48.402;9.994;2023-03-23T08:55:03;5.10;;;4.60;;
13584;SDS011;6863;48.402;9.994;2023-03-23T08:57:30;5.77;;;4.93;;
13584;SDS011;6863;48.402;9.994;2023-03-23T08:59:56;4.90;;;4.50;;
13584;SDS011;6863;48.402;9.994;2023-03-23T09:02:28;5.17;;;4.40;;
13584;SDS011;6863;48.402;9.994;2023-03-23T09:04:55;6.00;;;4.70;;
13584;SDS011;6863;48.402;9.994;2023-03-23T09:07:21;4.90;;;4.30;;
13584;SDS011;6863;48.402;9.994;2023-03-23T09:09:48;6.27;;;3.87;;
13584;SDS011;6863;48.402;9.994;2023-03-23T09:12:14;5.87;;;4.53;;
13584;SDS011;6863;48.402;9.994;2023-03-23T09:14:40;4.60;;;4.20;;
13584;SDS011;6863;48.402;9.994;2023-03-23T09:17:06;4.70;;;4.30;;
13584;SDS011;6863;48.402;9.994;2023-03-23T09:19:32;5.60;;;4.50;;
13584;SDS011;6863;48.402;9.994;2023-03-23T09:21:58;4.50;;;4.10;;
13584;SDS011;6863;48.402;9.994;2023-03-23T09:24:25;5.67;;;4.57;;
13584;SDS011;6863;48.402;9.994;2023-03-23T09:29:28;5.50;;;4.33;;
13584;SDS011;6863;48.402;9.994;2023-03-23T09:31:54;6.50;;;4.47;;
13584;SDS011;6863;48.402;9.994;2023-03-23T09:34:21;4.60;;;3.63;;
13584;SDS011;6863;48.402;9.994;2023-03-23T09:36:47;7.73;;;4.10;;
13584;SDS011;6863;48.402;9.994;2023-03-23T09:39:13;3.90;;;3.60;;
13584;SDS011;6863;48.402;9.994;2023-03-23T09:41:48;4.20;;;3.80;;
13584;SDS011;6863;48.402;9.994;2023-03-23T09:47:43;4.10;;;3.67;;
13584;SDS011;6863;48.402;9.994;2023-03-23T09:50:21;3.83;;;3.53;;
13584;SDS011;6863;48.402;9.994;2023-03-23T09:52:56;4.50;;;4.10;;
13584;SDS011;6863;48.402;9.994;2023-03-23T09:55:23;4.10;;;3.80;;
13584;SDS011;6863;48.402;9.994;2023-03-23T10:00:56;4.77;;;3.87;;
13584;SDS011;6863;48.402;9.994;2023-03-23T10:03:34;3.60;;;3.30;;
13584;SDS011;6863;48.402;9.994;2023-03-23T10:06:10;4.50;;;3.40;;
13584;SDS011;6863;48.402;9.994;2023-03-23T10:08:48;5.20;;;3.73;;
13584;SDS011;6863;48.402;9.994;2023-03-23T10:11:26;4.50;;;4.03;;
13584;SDS011;6863;48.402;9.994;2023-03-23T10:19:42;3.97;;;3.67;;
13584;SDS011;6863;48.402;9.994;2023-03-23T10:22:33;4.35;;;3.80;;
13584;SDS011;6863;48.402;9.994;2023-03-23T10:27:44;4.38;;;3.80;;
13584;SDS011;6863;48.402;9.994;2023-03-23T10:30:58;3.45;;;3.17;;
13584;SDS011;6863;48.402;9.994;2023-03-23T10:33:16;4.38;;;3.67;;
13584;SDS011;6863;48.402;9.994;2023-03-23T10:38:23;4.72;;;4.03;;
13584;SDS011;6863;48.402;9.994;2023-03-23T10:40:55;4.68;;;3.63;;
13584;SDS011;6863;48.402;9.994;2023-03-23T10:43:24;4.35;;;3.92;;
13584;SDS011;6863;48.402;9.994;2023-03-23T10:48:29;4.55;;;4.15;;
13584;SDS011;6863;48.402;9.994;2023-03-23T10:50:59;3.70;;;3.40;;
13584;SDS011;6863;48.402;9.994;2023-03-23T10:53:43;3.60;;;3.30;;
13584;SDS011;6863;48.402;9.994;2023-03-23T10:56:23;3.58;;;3.33;;
13584;SDS011;6863;48.402;9.994;2023-03-23T10:58:49;4.40;;;4.00;;
13584;SDS011;6863;48.402;9.994;2023-03-23T11:01:17;4.07;;;3.60;;
13584;SDS011;6863;48.402;9.994;2023-03-23T11:03:45;4.75;;;3.75;;
13584;SDS011;6863;48.402;9.994;2023-03-23T11:06:19;4.80;;;3.67;;
13584;SDS011;6863;48.402;9.994;2023-03-23T11:09:10;3.35;;;3.15;;
13584;SDS011;6863;48.402;9.994;2023-03-23T11:11:39;4.20;;;3.63;;
13584;SDS011;6863;48.402;9.994;2023-03-23T11:17:05;5.03;;;3.35;;
13584;SDS011;6863;48.402;9.994;2023-03-23T11:19:46;4.20;;;3.80;;
13584;SDS011;6863;48.402;9.994;2023-03-23T11:22:20;4.90;;;3.10;;
13584;SDS011;6863;48.402;9.994;2023-03-23T11:24:53;7.03;;;3.92;;
13584;SDS011;6863;48.402;9.994;2023-03-23T11:27:21;4.30;;;3.55;;
13584;SDS011;6863;48.402;9.994;2023-03-23T11:29:52;3.40;;;3.15;;
13584;SDS011;6863;48.402;9.994;2023-03-23T11:32:22;5.35;;;3.40;;
13584;SDS011;6863;48.402;9.994;2023-03-23T11:35:03;3.63;;;3.33;;
13584;SDS011;6863;48.402;9.994;2023-03-23T11:37:39;16.50;;;4.43;;
13584;SDS011;6863;48.402;9.994;2023-03-23T11:40:15;3.33;;;2.78;;
13584;SDS011;6863;48.402;9.994;2023-03-23T11:42:45;2.50;;;2.20;;
13584;SDS011;6863;48.402;9.994;2023-03-23T11:50:50;1.80;;;1.70;;
13584;SDS011;6863;48.402;9.994;2023-03-23T11:56:24;2.13;;;1.67;;
13584;SDS011;6863;48.402;9.994;2023-03-23T11:58:53;3.92;;;1.77;;
13584;SDS011;6863;48.402;9.994;2023-03-23T12:23:48;2.35;;;1.98;;
13584;SDS011;6863;48.402;9.994;2023-03-23T12:26:30;2.25;;;2.05;;
13584;SDS011;6863;48.402;9.994;2023-03-23T12:29:08;2.15;;;1.95;;
13584;SDS011;6863;48.402;9.994;2023-03-23T12:34:41;2.30;;;2.10;;
13584;SDS011;6863;48.402;9.994;2023-03-23T12:37:24;2.67;;;2.00;;
13584;SDS011;6863;48.402;9.994;2023-03-23T12:48:35;2.83;;;2.63;;
13584;SDS011;6863;48.402;9.994;2023-03-23T12:54:09;3.75;;;2.90;;
13584;SDS011;6863;48.402;9.994;2023-03-23T12:56:59;2.78;;;2.50;;
13584;SDS011;6863;48.402;9.994;2023-03-23T13:04:47;3.58;;;2.10;;
13584;SDS011;6863;48.402;9.994;2023-03-23T13:07:18;2.53;;;2.13;;
13584;SDS011;6863;48.402;9.994;2023-03-23T13:10:07;2.03;;;1.90;;
13584;SDS011;6863;48.402;9.994;2023-03-23T13:12:38;2.10;;;2.00;;
13584;SDS011;6863;48.402;9.994;2023-03-23T13:15:18;2.20;;;2.00;;
13584;SDS011;6863;48.402;9.994;2023-03-23T13:18:16;2.20;;;2.10;;
13584;SDS011;6863;48.402;9.994;2023-03-23T13:23:59;2.70;;;2.50;;
13584;SDS011;6863;48.402;9.994;2023-03-23T13:26:38;2.63;;;2.42;;
13584;SDS011;6863;48.402;9.994;2023-03-23T13:29:11;3.40;;;2.67;;
13584;SDS011;6863;48.402;9.994;2023-03-23T13:31:40;2.80;;;2.47;;
13584;SDS011;6863;48.402;9.994;2023-03-23T13:36:42;3.63;;;3.25;;
13584;SDS011;6863;48.402;9.994;2023-03-23T13:44:38;5.80;;;3.25;;
13584;SDS011;6863;48.402;9.994;2023-03-23T13:47:28;3.45;;;3.17;;
13584;SDS011;6863;48.402;9.994;2023-03-23T13:57:56;3.30;;;3.00;;
13584;SDS011;6863;48.402;9.994;2023-03-23T14:16:49;4.00;;;3.25;;
13584;SDS011;6863;48.402;9.994;2023-03-23T14:19:27;3.03;;;2.75;;
13584;SDS011;6863;48.402;9.994;2023-03-23T14:21:55;3.67;;;3.13;;
13584;SDS011;6863;48.402;9.994;2023-03-23T14:24:29;3.25;;;2.95;;
13584;SDS011;6863;48.402;9.994;2023-03-23T14:27:30;3.80;;;3.38;;
13584;SDS011;6863;48.402;9.994;2023-03-23T14:30:12;4.43;;;3.03;;
13584;SDS011;6863;48.402;9.994;2023-03-23T14:32:41;4.80;;;2.78;;
13584;SDS011;6863;48.402;9.994;2023-03-23T14:35:13;2.67;;;2.47;;
13584;SDS011;6863;48.402;9.994;2023-03-23T14:37:54;4.75;;;2.97;;
13584;SDS011;6863;48.402;9.994;2023-03-23T14:40:20;3.38;;;3.00;;
13584;SDS011;6863;48.402;9.994;2023-03-23T14:42:46;3.20;;;3.00;;
13584;SDS011;6863;48.402;9.994;2023-03-23T14:45:16;3.03;;;2.72;;
13584;SDS011;6863;48.402;9.994;2023-03-23T14:47:44;3.08;;;2.78;;
13584;SDS011;6863;48.402;9.994;2023-03-23T14:50:37;3.40;;;3.10;;
13584;SDS011;6863;48.402;9.994;2023-03-23T14:53:15;3.38;;;3.08;;
13584;SDS011;6863;48.402;9.994;2023-03-23T14:55:49;5.90;;;3.20;;
13584;SDS011;6863;48.402;9.994;2023-03-23T14:58:20;8.00;;;2.92;;
13584;SDS011;6863;48.402;9.994;2023-03-23T15:00:49;3.55;;;2.72;;
13584;SDS011;6863;48.402;9.994;2023-03-23T15:03:28;7.57;;;3.70;;
13584;SDS011;6863;48.402;9.994;2023-03-23T15:06:02;5.18;;;3.03;;
13584;SDS011;6863;48.402;9.994;2023-03-23T15:08:35;4.55;;;2.78;;
13584;SDS011;6863;48.402;9.994;2023-03-23T15:13:46;4.13;;;3.20;;
13584;SDS011;6863;48.402;9.994;2023-03-23T15:16:24;3.20;;;3.00;;
13584;SDS011;6863;48.402;9.994;2023-03-23T15:18:55;3.30;;;3.00;;
13584;SDS011;6863;48.402;9.994;2023-03-23T15:21:26;3.72;;;2.88;;
13584;SDS011;6863;48.402;9.994;2023-03-23T15:23:54;3.10;;;2.80;;
13584;SDS011;6863;48.402;9.994;2023-03-23T15:26:25;3.25;;;3.00;;
13584;SDS011;6863;48.402;9.994;2023-03-23T15:29:19;4.53;;;2.90;;
13584;SDS011;6863;48.402;9.994;2023-03-23T15:31:48;3.53;;;3.00;;
13584;SDS011;6863;48.402;9.994;2023-03-23T15:34:20;2.90;;;2.70;;
13584;SDS011;6863;48.402;9.994;2023-03-23T15:36:51;3.15;;;2.83;;
13584;SDS011;6863;48.402;9.994;2023-03-23T15:39:24;3.72;;;3.13;;
13584;SDS011;6863;48.402;9.994;2023-03-23T15:41:51;4.93;;;3.15;;
13584;SDS011;6863;48.402;9.994;2023-03-23T15:44:24;3.47;;;3.13;;
13584;SDS011;6863;48.402;9.994;2023-03-23T15:47:12;3.22;;;2.92;;
13584;SDS011;6863;48.402;9.994;2023-03-23T15:49:43;4.50;;;3.50;;
13584;SDS011;6863;48.402;9.994;2023-03-23T15:52:10;3.35;;;3.05;;
13584;SDS011;6863;48.402;9.994;2023-03-23T15:54:36;3.90;;;3.60;;
13584;SDS011;6863;48.402;9.994;2023-03-23T15:57:02;3.40;;;2.80;;
13584;SDS011;6863;48.402;9.994;2023-03-23T15:59:28;3.17;;;2.88;;
13584;SDS011;6863;48.402;9.994;2023-03-23T16:01:53;6.90;;;3.80;;
13584;SDS011;6863;48.402;9.994;2023-03-23T16:04:19;3.45;;;3.15;;
13584;SDS011;6863;48.402;9.994;2023-03-23T16:06:46;3.30;;;3.00;;
13584;SDS011;6863;48.402;9.994;2023-03-23T16:09:15;3.53;;;3.22;;
13584;SDS011;6863;48.402;9.994;2023-03-23T16:11:43;3.60;;;3.30;;
13584;SDS011;6863;48.402;9.994;2023-03-23T16:14:09;3.00;;;2.80;;
13584;SDS011;6863;48.402;9.994;2023-03-23T16:16:39;3.63;;;3.20;;
13584;SDS011;6863;48.402;9.994;2023-03-23T16:19:10;3.10;;;2.88;;
13584;SDS011;6863;48.402;9.994;2023-03-23T16:21:37;3.40;;;3.08;;
13584;SDS011;6863;48.402;9.994;2023-03-23T16:24:02;7.93;;;7.18;;
13584;SDS011;6863;48.402;9.994;2023-03-23T16:26:28;3.47;;;3.17;;
13584;SDS011;6863;48.402;9.994;2023-03-23T16:28:54;3.50;;;3.20;;
13584;SDS011;6863;48.402;9.994;2023-03-23T16:31:20;3.47;;;3.17;;
13584;SDS011;6863;48.402;9.994;2023-03-23T16:33:45;3.70;;;3.40;;
13584;SDS011;6863;48.402;9.994;2023-03-23T16:36:14;3.78;;;3.05;;
13584;SDS011;6863;48.402;9.994;2023-03-23T16:38:40;4.03;;;3.33;;
13584;SDS011;6863;48.402;9.994;2023-03-23T16:41:06;4.90;;;3.63;;
13584;SDS011;6863;48.402;9.994;2023-03-23T16:43:33;4.15;;;3.65;;
13584;SDS011;6863;48.402;9.994;2023-03-23T16:48:30;3.85;;;3.50;;
13584;SDS011;6863;48.402;9.994;2023-03-23T16:51:04;3.80;;;3.50;;
13584;SDS011;6863;48.402;9.994;2023-03-23T16:53:30;4.50;;;4.13;;
13584;SDS011;6863;48.402;9.994;2023-03-23T16:55:56;4.37;;;3.97;;
13584;SDS011;6863;48.402;9.994;2023-03-23T16:58:22;4.90;;;4.40;;
13584;SDS011;6863;48.402;9.994;2023-03-23T17:00:48;4.87;;;4.30;;
13584;SDS011;6863;48.402;9.994;2023-03-23T17:03:16;5.30;;;4.10;;
13584;SDS011;6863;48.402;9.994;2023-03-23T17:05:42;4.43;;;4.03;;
13584;SDS011;6863;48.402;9.994;2023-03-23T17:08:08;4.37;;;3.97;;
13584;SDS011;6863;48.402;9.994;2023-03-23T17:10:36;4.60;;;4.00;;
13584;SDS011;6863;48.402;9.994;2023-03-23T17:13:03;4.60;;;4.13;;
13584;SDS011;6863;48.402;9.994;2023-03-23T17:15:29;4.93;;;4.07;;
13584;SDS011;6863;48.402;9.994;2023-03-23T17:17:54;4.47;;;3.87;;
13584;SDS011;6863;48.402;9.994;2023-03-23T17:20:20;7.33;;;4.20;;
13584;SDS011;6863;48.402;9.994;2023-03-23T17:22:46;4.27;;;3.87;;
13584;SDS011;6863;48.402;9.994;2023-03-23T17:25:11;6.07;;;4.50;;
13584;SDS011;6863;48.402;9.994;2023-03-23T17:27:38;4.20;;;3.83;;